<?xml version='1.0' encoding='UTF-8'?><gpx version="1.1" creator="JPX - https://github.com/jenetics/jpx" xmlns="http://www.topografix.com/GPX/1/1"><trk><trkseg><trkpt lat="43.48603854424028" lon="5.347059805807747"><ele>162.0</ele><time>2026-03-26T09:07:52.452Z</time></trkpt><trkpt lat="43.4859651813874" lon="5.347041985303502"><ele>162.0</ele><time>2026-03-26T09:08:13.05Z</time></trkpt><trkpt lat="43.48581914342331" lon="5.347045489497351"><ele>162.0</ele><time>2026-03-26T09:08:15.99Z</time></trkpt><trkpt lat="43.485705713074644" lon="5.347051272801543"><ele>162.0</ele><time>2026-03-26T09:08:16.991Z</time></trkpt><trkpt lat="43.485597210374515" lon="5.3470499074976585"><ele>162.0</ele><time>2026-03-26T09:08:17.991Z</time></trkpt><trkpt lat="43.48549703526046" lon="5.347053411060095"><ele>162.5</ele><time>2026-03-26T09:08:18.992Z</time></trkpt><trkpt lat="43.48538165373871" lon="5.347059234647559"><ele>163.0</ele><time>2026-03-26T09:08:19.993Z</time></trkpt><trkpt lat="43.48527672157559" lon="5.3470696736636985"><ele>163.5</ele><time>2026-03-26T09:08:20.993Z</time></trkpt><trkpt lat="43.48518442594927" lon="5.347093451082705"><ele>164.0</ele><time>2026-03-26T09:08:21.993Z</time></trkpt><trkpt lat="43.48504168990703" lon="5.347130219253316"><ele>164.0</ele><time>2026-03-26T09:08:23.994Z</time></trkpt><trkpt lat="43.484958442705484" lon="5.347162572660177"><ele>164.0</ele><time>2026-03-26T09:08:24.995Z</time></trkpt><trkpt lat="43.484857718231076" lon="5.347190575747718"><ele>164.0</ele><time>2026-03-26T09:08:25.995Z</time></trkpt><trkpt lat="43.4847100831287" lon="5.347237344972129"><ele>164.0</ele><time>2026-03-26T09:08:26.995Z</time></trkpt><trkpt lat="43.48443301578076" lon="5.347111241749698"><ele>164.5</ele><time>2026-03-26T09:08:27.996Z</time></trkpt><trkpt lat="43.4843008859456" lon="5.347140935248507"><ele>165.0</ele><time>2026-03-26T09:08:28.996Z</time></trkpt><trkpt lat="43.48416275234082" lon="5.347170872506443"><ele>165.5</ele><time>2026-03-26T09:08:29.996Z</time></trkpt><trkpt lat="43.48407046543232" lon="5.347184098273205"><ele>166.0</ele><time>2026-03-26T09:08:30.996Z</time></trkpt><trkpt lat="43.483937212675876" lon="5.34719617537595"><ele>166.0</ele><time>2026-03-26T09:08:31.997Z</time></trkpt><trkpt lat="43.48381917589134" lon="5.347217903726471"><ele>166.0</ele><time>2026-03-26T09:08:32.997Z</time></trkpt><trkpt lat="43.48371628300553" lon="5.347223919872598"><ele>166.0</ele><time>2026-03-26T09:08:33.997Z</time></trkpt><trkpt lat="43.4836210594008" lon="5.347217813666388"><ele>166.0</ele><time>2026-03-26T09:08:34.997Z</time></trkpt><trkpt lat="43.483525464055035" lon="5.347233757189948"><ele>166.0</ele><time>2026-03-26T09:08:35.998Z</time></trkpt><trkpt lat="43.48345327443224" lon="5.347228122022389"><ele>166.0</ele><time>2026-03-26T09:08:36.998Z</time></trkpt><trkpt lat="43.483379409129626" lon="5.34723278337249"><ele>166.0</ele><time>2026-03-26T09:08:39.998Z</time></trkpt><trkpt lat="43.4832904210479" lon="5.347436354905277"><ele>166.0</ele><time>2026-03-26T09:08:50Z</time></trkpt><trkpt lat="43.48328120948923" lon="5.347597474170162"><ele>166.0</ele><time>2026-03-26T09:08:51Z</time></trkpt><trkpt lat="43.483272795051626" lon="5.3477822618180255"><ele>166.0</ele><time>2026-03-26T09:08:52Z</time></trkpt><trkpt lat="43.48324783016529" lon="5.348010797208709"><ele>166.0</ele><time>2026-03-26T09:08:53Z</time></trkpt><trkpt lat="43.483244992978186" lon="5.348253113515896"><ele>166.0</ele><time>2026-03-26T09:08:54Z</time></trkpt><trkpt lat="43.4832461893389" lon="5.348475683036114"><ele>166.0</ele><time>2026-03-26T09:08:55Z</time></trkpt><trkpt lat="43.483231495480375" lon="5.348703479765664"><ele>166.0</ele><time>2026-03-26T09:08:56Z</time></trkpt><trkpt lat="43.4832355601988" lon="5.348878168558328"><ele>166.0</ele><time>2026-03-26T09:08:57Z</time></trkpt><trkpt lat="43.48324080324889" lon="5.34904605786505"><ele>166.0</ele><time>2026-03-26T09:08:58Z</time></trkpt><trkpt lat="43.4832490196729" lon="5.349208155775074"><ele>166.0</ele><time>2026-03-26T09:08:59Z</time></trkpt><trkpt lat="43.483235707311216" lon="5.349360545645518"><ele>166.0</ele><time>2026-03-26T09:09:00Z</time></trkpt><trkpt lat="43.483202249105965" lon="5.3495047997348095"><ele>166.0</ele><time>2026-03-26T09:09:01Z</time></trkpt><trkpt lat="43.483150157257484" lon="5.34962592430069"><ele>166.0</ele><time>2026-03-26T09:09:02Z</time></trkpt><trkpt lat="43.48307179473775" lon="5.349712663479191"><ele>166.0</ele><time>2026-03-26T09:09:03Z</time></trkpt><trkpt lat="43.482987200288285" lon="5.349783539003643"><ele>165.8</ele><time>2026-03-26T09:09:04Z</time></trkpt><trkpt lat="43.48289596352872" lon="5.349828574732774"><ele>165.60000000000002</ele><time>2026-03-26T09:09:05Z</time></trkpt><trkpt lat="43.48281024051749" lon="5.349912920137856"><ele>165.4</ele><time>2026-03-26T09:09:06.001Z</time></trkpt><trkpt lat="43.482763251276445" lon="5.350055344821175"><ele>165.2</ele><time>2026-03-26T09:09:07.001Z</time></trkpt><trkpt lat="43.48271095390525" lon="5.350223367796032"><ele>165.0</ele><time>2026-03-26T09:09:08.001Z</time></trkpt><trkpt lat="43.482604458766005" lon="5.350361303370694"><ele>165.0</ele><time>2026-03-26T09:09:09.001Z</time></trkpt><trkpt lat="43.4824507865085" lon="5.35048451991069"><ele>165.0</ele><time>2026-03-26T09:09:10.001Z</time></trkpt><trkpt lat="43.48229706666151" lon="5.3506006636173575"><ele>165.0</ele><time>2026-03-26T09:09:11.001Z</time></trkpt><trkpt lat="43.48215663924002" lon="5.35071065283611"><ele>164.25</ele><time>2026-03-26T09:09:12.001Z</time></trkpt><trkpt lat="43.482033431882705" lon="5.350815454501391"><ele>163.5</ele><time>2026-03-26T09:09:13.001Z</time></trkpt><trkpt lat="43.481928279437064" lon="5.350915900257119"><ele>162.75</ele><time>2026-03-26T09:09:14.001Z</time></trkpt><trkpt lat="43.48180576636921" lon="5.351033718110357"><ele>162.0</ele><time>2026-03-26T09:09:15.001Z</time></trkpt><trkpt lat="43.48168170263413" lon="5.351160009723345"><ele>162.0</ele><time>2026-03-26T09:09:16.001Z</time></trkpt><trkpt lat="43.48158887641599" lon="5.351304909266429"><ele>162.0</ele><time>2026-03-26T09:09:17.001Z</time></trkpt><trkpt lat="43.48150494227734" lon="5.351449276662463"><ele>162.0</ele><time>2026-03-26T09:09:18.001Z</time></trkpt><trkpt lat="43.48143611181882" lon="5.3515878117210685"><ele>162.0</ele><time>2026-03-26T09:09:19.001Z</time></trkpt><trkpt lat="43.48137406957835" lon="5.351723922409218"><ele>161.0</ele><time>2026-03-26T09:09:20.001Z</time></trkpt><trkpt lat="43.4813190908542" lon="5.351843629213203"><ele>160.0</ele><time>2026-03-26T09:09:21.001Z</time></trkpt><trkpt lat="43.48126839554683" lon="5.351948581693104"><ele>159.0</ele><time>2026-03-26T09:09:22.001Z</time></trkpt><trkpt lat="43.481221284077236" lon="5.352036762195287"><ele>158.0</ele><time>2026-03-26T09:09:23.001Z</time></trkpt><trkpt lat="43.48116746385357" lon="5.352119069361113"><ele>157.0</ele><time>2026-03-26T09:09:24.001Z</time></trkpt><trkpt lat="43.48111735515107" lon="5.3522183816821896"><ele>156.0</ele><time>2026-03-26T09:09:25.001Z</time></trkpt><trkpt lat="43.48106570927815" lon="5.352337652099497"><ele>154.0</ele><time>2026-03-26T09:09:26.001Z</time></trkpt><trkpt lat="43.481011223259785" lon="5.3524629523842036"><ele>152.0</ele><time>2026-03-26T09:09:27.001Z</time></trkpt><trkpt lat="43.48095954619377" lon="5.352576864475748"><ele>150.0</ele><time>2026-03-26T09:09:28.001Z</time></trkpt><trkpt lat="43.48090954971422" lon="5.352688618102081"><ele>148.0</ele><time>2026-03-26T09:09:29.001Z</time></trkpt><trkpt lat="43.480854083478626" lon="5.352797392687611"><ele>146.0</ele><time>2026-03-26T09:09:30.001Z</time></trkpt><trkpt lat="43.48078151962493" lon="5.352907847225375"><ele>146.0</ele><time>2026-03-26T09:09:31.001Z</time></trkpt><trkpt lat="43.48070507457166" lon="5.3530153785916665"><ele>146.0</ele><time>2026-03-26T09:09:32.001Z</time></trkpt><trkpt lat="43.48061166727826" lon="5.353109368724795"><ele>146.0</ele><time>2026-03-26T09:09:33.001Z</time></trkpt><trkpt lat="43.48052816160893" lon="5.353191732205708"><ele>146.0</ele><time>2026-03-26T09:09:34.001Z</time></trkpt><trkpt lat="43.480445178822684" lon="5.353265387099196"><ele>146.0</ele><time>2026-03-26T09:09:35.001Z</time></trkpt><trkpt lat="43.48035842065641" lon="5.353322670336304"><ele>143.5</ele><time>2026-03-26T09:09:36.001Z</time></trkpt><trkpt lat="43.480263619457716" lon="5.353361485384216"><ele>141.0</ele><time>2026-03-26T09:09:37.001Z</time></trkpt><trkpt lat="43.48014932829203" lon="5.353356844947606"><ele>138.5</ele><time>2026-03-26T09:09:38.001Z</time></trkpt><trkpt lat="43.480026198647465" lon="5.35333537633935"><ele>136.0</ele><time>2026-03-26T09:09:39.001Z</time></trkpt><trkpt lat="43.47986466182184" lon="5.3532976049388195"><ele>136.0</ele><time>2026-03-26T09:09:40.002Z</time></trkpt><trkpt lat="43.47971531948177" lon="5.3533142700742085"><ele>136.0</ele><time>2026-03-26T09:09:41.002Z</time></trkpt><trkpt lat="43.4795899475817" lon="5.353337428368963"><ele>136.0</ele><time>2026-03-26T09:09:42.002Z</time></trkpt><trkpt lat="43.47948268406691" lon="5.3533964859831125"><ele>136.0</ele><time>2026-03-26T09:09:43.002Z</time></trkpt><trkpt lat="43.47938435950085" lon="5.353482380480387"><ele>134.8</ele><time>2026-03-26T09:09:44.002Z</time></trkpt><trkpt lat="43.479310013577695" lon="5.353589209018425"><ele>133.6</ele><time>2026-03-26T09:09:45.002Z</time></trkpt><trkpt lat="43.47925158572856" lon="5.353709679448826"><ele>132.4</ele><time>2026-03-26T09:09:46.002Z</time></trkpt><trkpt lat="43.479215850153814" lon="5.35383338408987"><ele>131.2</ele><time>2026-03-26T09:09:47.002Z</time></trkpt><trkpt lat="43.47918979452795" lon="5.353954073512234"><ele>130.0</ele><time>2026-03-26T09:09:48.002Z</time></trkpt><trkpt lat="43.47917649258949" lon="5.354073650780742"><ele>129.0</ele><time>2026-03-26T09:09:49.002Z</time></trkpt><trkpt lat="43.47914885149916" lon="5.354189447511104"><ele>128.0</ele><time>2026-03-26T09:09:50.002Z</time></trkpt><trkpt lat="43.47914479982073" lon="5.354279625395251"><ele>127.0</ele><time>2026-03-26T09:09:51.002Z</time></trkpt><trkpt lat="43.47910627789863" lon="5.354459161368822"><ele>126.0</ele><time>2026-03-26T09:09:53.002Z</time></trkpt><trkpt lat="43.479044819583955" lon="5.3545512941136835"><ele>125.0</ele><time>2026-03-26T09:09:54.002Z</time></trkpt><trkpt lat="43.47894367262227" lon="5.354632541982408"><ele>125.0</ele><time>2026-03-26T09:09:55.002Z</time></trkpt><trkpt lat="43.47880293572663" lon="5.354702835097041"><ele>125.0</ele><time>2026-03-26T09:09:56.002Z</time></trkpt><trkpt lat="43.47863706961198" lon="5.354801579541054"><ele>125.0</ele><time>2026-03-26T09:09:57.002Z</time></trkpt><trkpt lat="43.478489477067356" lon="5.354951944029322"><ele>125.0</ele><time>2026-03-26T09:09:58.002Z</time></trkpt><trkpt lat="43.47836761980542" lon="5.3551366942328285"><ele>125.0</ele><time>2026-03-26T09:09:59.002Z</time></trkpt><trkpt lat="43.47826431638858" lon="5.355307590789609"><ele>125.0</ele><time>2026-03-26T09:10:00.002Z</time></trkpt><trkpt lat="43.47829197432086" lon="5.355516314538895"><ele>125.25</ele><time>2026-03-26T09:10:01.002Z</time></trkpt><trkpt lat="43.47831295893665" lon="5.355724256106065"><ele>125.5</ele><time>2026-03-26T09:10:02.002Z</time></trkpt><trkpt lat="43.478369200693315" lon="5.355919688242031"><ele>125.75</ele><time>2026-03-26T09:10:03.002Z</time></trkpt><trkpt lat="43.47844714217226" lon="5.356066545652838"><ele>126.0</ele><time>2026-03-26T09:10:04.002Z</time></trkpt><trkpt lat="43.478547762981414" lon="5.356181845484808"><ele>126.0</ele><time>2026-03-26T09:10:05.002Z</time></trkpt><trkpt lat="43.47868270756426" lon="5.356298586690517"><ele>126.0</ele><time>2026-03-26T09:10:06.002Z</time></trkpt><trkpt lat="43.47882456031727" lon="5.356370601376718"><ele>126.0</ele><time>2026-03-26T09:10:07.002Z</time></trkpt><trkpt lat="43.47897158294319" lon="5.356385601421524"><ele>125.0</ele><time>2026-03-26T09:10:08.002Z</time></trkpt><trkpt lat="43.47914192641109" lon="5.356380354104537"><ele>124.0</ele><time>2026-03-26T09:10:09.002Z</time></trkpt><trkpt lat="43.47930799037829" lon="5.3564225280258055"><ele>123.0</ele><time>2026-03-26T09:10:10.002Z</time></trkpt><trkpt lat="43.479485404061606" lon="5.356523509764866"><ele>124.33333333333334</ele><time>2026-03-26T09:10:11.002Z</time></trkpt><trkpt lat="43.47968853685486" lon="5.356630675747675"><ele>125.66666666666667</ele><time>2026-03-26T09:10:12.002Z</time></trkpt><trkpt lat="43.47991201515375" lon="5.356698652789082"><ele>127.0</ele><time>2026-03-26T09:10:13.002Z</time></trkpt><trkpt lat="43.480148065266135" lon="5.356735731942322"><ele>127.0</ele><time>2026-03-26T09:10:14.002Z</time></trkpt><trkpt lat="43.48039855029825" lon="5.3567390398331645"><ele>127.0</ele><time>2026-03-26T09:10:15.002Z</time></trkpt><trkpt lat="43.48065291543312" lon="5.356723159141425"><ele>128.0</ele><time>2026-03-26T09:10:16.002Z</time></trkpt><trkpt lat="43.4809092560681" lon="5.356691794391723"><ele>129.0</ele><time>2026-03-26T09:10:17.002Z</time></trkpt><trkpt lat="43.48114511687838" lon="5.356651215666215"><ele>130.33333333333334</ele><time>2026-03-26T09:10:18.002Z</time></trkpt><trkpt lat="43.481363759523624" lon="5.356600574180443"><ele>131.66666666666669</ele><time>2026-03-26T09:10:19.002Z</time></trkpt><trkpt lat="43.48157961469617" lon="5.356522464865755"><ele>133.0</ele><time>2026-03-26T09:10:19.996Z</time></trkpt><trkpt lat="43.48180096258321" lon="5.3564175994051775"><ele>129.5</ele><time>2026-03-26T09:10:20.996Z</time></trkpt><trkpt lat="43.482039502548325" lon="5.356286314850634"><ele>126.0</ele><time>2026-03-26T09:10:21.996Z</time></trkpt><trkpt lat="43.482284970702125" lon="5.356146291753503"><ele>126.0</ele><time>2026-03-26T09:10:22.996Z</time></trkpt><trkpt lat="43.48251268000627" lon="5.3560134317419"><ele>126.0</ele><time>2026-03-26T09:10:23.996Z</time></trkpt><trkpt lat="43.48271632900633" lon="5.355903424771202"><ele>126.0</ele><time>2026-03-26T09:10:24.996Z</time></trkpt><trkpt lat="43.48291139373599" lon="5.355824180179239"><ele>126.0</ele><time>2026-03-26T09:10:25.996Z</time></trkpt><trkpt lat="43.4831099287439" lon="5.355762663398612"><ele>126.0</ele><time>2026-03-26T09:10:26.997Z</time></trkpt><trkpt lat="43.48331267937138" lon="5.3557200675908145"><ele>128.66666666666666</ele><time>2026-03-26T09:10:27.997Z</time></trkpt><trkpt lat="43.483512155837715" lon="5.35569539807895"><ele>131.33333333333331</ele><time>2026-03-26T09:10:28.997Z</time></trkpt><trkpt lat="43.48370944857755" lon="5.355696968414293"><ele>134.0</ele><time>2026-03-26T09:10:29.997Z</time></trkpt><trkpt lat="43.48390828708096" lon="5.35570367820865"><ele>134.5</ele><time>2026-03-26T09:10:30.997Z</time></trkpt><trkpt lat="43.48412834622195" lon="5.355737260317236"><ele>135.0</ele><time>2026-03-26T09:10:31.997Z</time></trkpt><trkpt lat="43.484357775626926" lon="5.355805820008293"><ele>135.0</ele><time>2026-03-26T09:10:32.997Z</time></trkpt><trkpt lat="43.48458936792473" lon="5.355913276952144"><ele>135.0</ele><time>2026-03-26T09:10:33.997Z</time></trkpt><trkpt lat="43.48481728509095" lon="5.356053012018171"><ele>132.5</ele><time>2026-03-26T09:10:34.998Z</time></trkpt><trkpt lat="43.485038952943704" lon="5.3562266600902575"><ele>130.0</ele><time>2026-03-26T09:10:35.998Z</time></trkpt><trkpt lat="43.48525363484868" lon="5.356439551273223"><ele>132.5</ele><time>2026-03-26T09:10:36.998Z</time></trkpt><trkpt lat="43.48547074697788" lon="5.356661363455204"><ele>135.0</ele><time>2026-03-26T09:10:37.998Z</time></trkpt><trkpt lat="43.485654947632185" lon="5.356972264047487"><ele>135.5</ele><time>2026-03-26T09:10:38.998Z</time></trkpt><trkpt lat="43.4858223287028" lon="5.357285235726212"><ele>136.0</ele><time>2026-03-26T09:10:39.998Z</time></trkpt><trkpt lat="43.48598124025902" lon="5.357636823574902"><ele>136.0</ele><time>2026-03-26T09:10:40.998Z</time></trkpt><trkpt lat="43.48611341334633" lon="5.358004175930744"><ele>136.0</ele><time>2026-03-26T09:10:41.998Z</time></trkpt><trkpt lat="43.48621427434609" lon="5.35840230732967"><ele>136.5</ele><time>2026-03-26T09:10:42.999Z</time></trkpt><trkpt lat="43.48629576793844" lon="5.358822566927667"><ele>137.0</ele><time>2026-03-26T09:10:43.999Z</time></trkpt><trkpt lat="43.48638172781599" lon="5.359257710165943"><ele>134.5</ele><time>2026-03-26T09:10:44.999Z</time></trkpt><trkpt lat="43.48646454102607" lon="5.359673365306906"><ele>132.0</ele><time>2026-03-26T09:10:45.999Z</time></trkpt><trkpt lat="43.48656114311334" lon="5.360055111715229"><ele>129.0</ele><time>2026-03-26T09:10:46.999Z</time></trkpt><trkpt lat="43.4866828659657" lon="5.360419672531512"><ele>126.0</ele><time>2026-03-26T09:10:47.999Z</time></trkpt><trkpt lat="43.48684139974372" lon="5.360790964840692"><ele>125.0</ele><time>2026-03-26T09:10:48.999Z</time></trkpt><trkpt lat="43.48703413734804" lon="5.361160299524083"><ele>124.0</ele><time>2026-03-26T09:10:49.999Z</time></trkpt><trkpt lat="43.487253621191556" lon="5.361512655370484"><ele>121.5</ele><time>2026-03-26T09:10:50.999Z</time></trkpt><trkpt lat="43.48747519145632" lon="5.361874397040358"><ele>119.0</ele><time>2026-03-26T09:10:51.999Z</time></trkpt><trkpt lat="43.48768753344379" lon="5.362240832065728"><ele>117.5</ele><time>2026-03-26T09:10:52.999Z</time></trkpt><trkpt lat="43.48790537620788" lon="5.3626124431432505"><ele>116.0</ele><time>2026-03-26T09:10:53.999Z</time></trkpt><trkpt lat="43.488124337085196" lon="5.3629880194600705"><ele>113.0</ele><time>2026-03-26T09:10:54.999Z</time></trkpt><trkpt lat="43.48834276350475" lon="5.363357642544145"><ele>110.0</ele><time>2026-03-26T09:10:55.999Z</time></trkpt><trkpt lat="43.488550948009696" lon="5.3637309068042"><ele>111.0</ele><time>2026-03-26T09:10:57Z</time></trkpt><trkpt lat="43.48874798194657" lon="5.364074580511867"><ele>112.0</ele><time>2026-03-26T09:10:58Z</time></trkpt><trkpt lat="43.48895255270041" lon="5.364416435380892"><ele>111.5</ele><time>2026-03-26T09:10:59Z</time></trkpt><trkpt lat="43.48914101168805" lon="5.364734240698168"><ele>111.0</ele><time>2026-03-26T09:11:00Z</time></trkpt><trkpt lat="43.48931858822362" lon="5.3650372447464045"><ele>111.0</ele><time>2026-03-26T09:11:01Z</time></trkpt><trkpt lat="43.48950363503435" lon="5.36535143390776"><ele>111.0</ele><time>2026-03-26T09:11:02Z</time></trkpt><trkpt lat="43.489686649279776" lon="5.365663986635634"><ele>109.0</ele><time>2026-03-26T09:11:03Z</time></trkpt><trkpt lat="43.48987648846352" lon="5.3659839728821"><ele>107.0</ele><time>2026-03-26T09:11:04Z</time></trkpt><trkpt lat="43.490074391197986" lon="5.36630892009372"><ele>110.0</ele><time>2026-03-26T09:11:05Z</time></trkpt><trkpt lat="43.49043043633717" lon="5.366923098308981"><ele>110.0</ele><time>2026-03-26T09:11:07Z</time></trkpt><trkpt lat="43.49059204048455" lon="5.367212400053906"><ele>110.0</ele><time>2026-03-26T09:11:08Z</time></trkpt><trkpt lat="43.490749985256834" lon="5.367492298067222"><ele>110.0</ele><time>2026-03-26T09:11:09Z</time></trkpt><trkpt lat="43.490920889825695" lon="5.367760961289488"><ele>110.0</ele><time>2026-03-26T09:11:10Z</time></trkpt><trkpt lat="43.49111251769785" lon="5.368068513256778"><ele>110.0</ele><time>2026-03-26T09:11:11Z</time></trkpt><trkpt lat="43.49130049107588" lon="5.368380478916686"><ele>110.0</ele><time>2026-03-26T09:11:12Z</time></trkpt><trkpt lat="43.49148320079223" lon="5.368679643089537"><ele>110.5</ele><time>2026-03-26T09:11:13Z</time></trkpt><trkpt lat="43.49165975784348" lon="5.368978879417837"><ele>111.0</ele><time>2026-03-26T09:11:14Z</time></trkpt><trkpt lat="43.49183281784772" lon="5.369275551819324"><ele>111.0</ele><time>2026-03-26T09:11:15Z</time></trkpt><trkpt lat="43.49200830552619" lon="5.369567039681246"><ele>111.0</ele><time>2026-03-26T09:11:16Z</time></trkpt><trkpt lat="43.492184942391496" lon="5.369857783244103"><ele>111.5</ele><time>2026-03-26T09:11:17Z</time></trkpt><trkpt lat="43.49236584382779" lon="5.370144351303799"><ele>112.0</ele><time>2026-03-26T09:11:18Z</time></trkpt><trkpt lat="43.49255218566523" lon="5.370443677250504"><ele>113.5</ele><time>2026-03-26T09:11:19.001Z</time></trkpt><trkpt lat="43.49274302472109" lon="5.370748674229144"><ele>115.0</ele><time>2026-03-26T09:11:20.001Z</time></trkpt><trkpt lat="43.49294134156257" lon="5.371070863325535"><ele>115.0</ele><time>2026-03-26T09:11:21.001Z</time></trkpt><trkpt lat="43.493140348407536" lon="5.371394778002211"><ele>115.0</ele><time>2026-03-26T09:11:22.001Z</time></trkpt><trkpt lat="43.493321762408776" lon="5.371696857129091"><ele>115.0</ele><time>2026-03-26T09:11:23.001Z</time></trkpt><trkpt lat="43.49350717130193" lon="5.372007659422363"><ele>115.0</ele><time>2026-03-26T09:11:24.001Z</time></trkpt><trkpt lat="43.49369544213809" lon="5.372330173680389"><ele>115.5</ele><time>2026-03-26T09:11:25.001Z</time></trkpt><trkpt lat="43.493892011404775" lon="5.372651783313898"><ele>116.0</ele><time>2026-03-26T09:11:26.001Z</time></trkpt><trkpt lat="43.49409387166819" lon="5.372981194003957"><ele>116.0</ele><time>2026-03-26T09:11:27.001Z</time></trkpt><trkpt lat="43.494299879245816" lon="5.373317941710928"><ele>116.0</ele><time>2026-03-26T09:11:28.001Z</time></trkpt><trkpt lat="43.49450396202965" lon="5.373660563153373"><ele>115.0</ele><time>2026-03-26T09:11:29.001Z</time></trkpt><trkpt lat="43.49470441683947" lon="5.374000579362459"><ele>114.0</ele><time>2026-03-26T09:11:30.001Z</time></trkpt><trkpt lat="43.494908629946075" lon="5.374346104713109"><ele>114.0</ele><time>2026-03-26T09:11:31.001Z</time></trkpt><trkpt lat="43.49511480152672" lon="5.374685745491165"><ele>114.0</ele><time>2026-03-26T09:11:32.001Z</time></trkpt><trkpt lat="43.49531364378948" lon="5.375011011925927"><ele>114.0</ele><time>2026-03-26T09:11:33.001Z</time></trkpt><trkpt lat="43.49550838395012" lon="5.375330353734537"><ele>114.0</ele><time>2026-03-26T09:11:34.001Z</time></trkpt><trkpt lat="43.49570006453054" lon="5.375642328198217"><ele>114.0</ele><time>2026-03-26T09:11:35.001Z</time></trkpt><trkpt lat="43.49588850899059" lon="5.375954777547525"><ele>114.0</ele><time>2026-03-26T09:11:36.001Z</time></trkpt><trkpt lat="43.496071060231976" lon="5.37625637806387"><ele>115.5</ele><time>2026-03-26T09:11:37.001Z</time></trkpt><trkpt lat="43.49625500542052" lon="5.376555175650538"><ele>117.0</ele><time>2026-03-26T09:11:38.001Z</time></trkpt><trkpt lat="43.496441207327955" lon="5.376867790594976"><ele>117.0</ele><time>2026-03-26T09:11:39.001Z</time></trkpt><trkpt lat="43.49663387833349" lon="5.3771844576812295"><ele>117.0</ele><time>2026-03-26T09:11:40.001Z</time></trkpt><trkpt lat="43.496824778403244" lon="5.377513784895328"><ele>118.0</ele><time>2026-03-26T09:11:41.001Z</time></trkpt><trkpt lat="43.49700656088241" lon="5.37785441026398"><ele>119.0</ele><time>2026-03-26T09:11:42.001Z</time></trkpt><trkpt lat="43.49718070802655" lon="5.378211466038073"><ele>119.5</ele><time>2026-03-26T09:11:43.001Z</time></trkpt><trkpt lat="43.49734787569727" lon="5.37858058587769"><ele>120.0</ele><time>2026-03-26T09:11:44.001Z</time></trkpt><trkpt lat="43.49751452600311" lon="5.378955760763057"><ele>120.0</ele><time>2026-03-26T09:11:45.001Z</time></trkpt><trkpt lat="43.49768730888003" lon="5.379330022321627"><ele>120.0</ele><time>2026-03-26T09:11:46.001Z</time></trkpt><trkpt lat="43.49786187749404" lon="5.379702499145214"><ele>119.0</ele><time>2026-03-26T09:11:47.001Z</time></trkpt><trkpt lat="43.49803222891882" lon="5.380078018305015"><ele>118.0</ele><time>2026-03-26T09:11:48.001Z</time></trkpt><trkpt lat="43.49820345833987" lon="5.380454282021204"><ele>118.5</ele><time>2026-03-26T09:11:49.002Z</time></trkpt><trkpt lat="43.49837662251835" lon="5.380834783038747"><ele>119.0</ele><time>2026-03-26T09:11:50.002Z</time></trkpt><trkpt lat="43.498548485909836" lon="5.381210575870268"><ele>120.0</ele><time>2026-03-26T09:11:51.002Z</time></trkpt><trkpt lat="43.49872122043879" lon="5.381585948158614"><ele>121.0</ele><time>2026-03-26T09:11:52.002Z</time></trkpt><trkpt lat="43.498888575588595" lon="5.381961239304068"><ele>123.0</ele><time>2026-03-26T09:11:53.002Z</time></trkpt><trkpt lat="43.49905461149275" lon="5.382345330034169"><ele>125.0</ele><time>2026-03-26T09:11:54.002Z</time></trkpt><trkpt lat="43.4992045116392" lon="5.382741517664555"><ele>126.5</ele><time>2026-03-26T09:11:55.002Z</time></trkpt><trkpt lat="43.49934436456131" lon="5.3831410716264205"><ele>128.0</ele><time>2026-03-26T09:11:56.002Z</time></trkpt><trkpt lat="43.499469090080495" lon="5.383543707391172"><ele>127.0</ele><time>2026-03-26T09:11:57.002Z</time></trkpt><trkpt lat="43.499586913070125" lon="5.383953300952616"><ele>126.0</ele><time>2026-03-26T09:11:58.002Z</time></trkpt><trkpt lat="43.49968136896242" lon="5.384372596734354"><ele>127.5</ele><time>2026-03-26T09:11:59.002Z</time></trkpt><trkpt lat="43.49977961067899" lon="5.384797043007877"><ele>129.0</ele><time>2026-03-26T09:12:00.002Z</time></trkpt><trkpt lat="43.49987747949319" lon="5.385216204188074"><ele>131.5</ele><time>2026-03-26T09:12:01.002Z</time></trkpt><trkpt lat="43.4999700930393" lon="5.385566039648331"><ele>134.0</ele><time>2026-03-26T09:12:02.002Z</time></trkpt><trkpt lat="43.500050816106366" lon="5.385914517254615"><ele>134.0</ele><time>2026-03-26T09:12:03.002Z</time></trkpt><trkpt lat="43.50012530353725" lon="5.38622568376193"><ele>134.0</ele><time>2026-03-26T09:12:04.002Z</time></trkpt><trkpt lat="43.50020103631354" lon="5.386549482728689"><ele>134.5</ele><time>2026-03-26T09:12:05.002Z</time></trkpt><trkpt lat="43.50028361109266" lon="5.386872666910796"><ele>135.0</ele><time>2026-03-26T09:12:06.002Z</time></trkpt><trkpt lat="43.500391524691715" lon="5.387266383392343"><ele>132.0</ele><time>2026-03-26T09:12:07.002Z</time></trkpt><trkpt lat="43.50047249898396" lon="5.387623599419637"><ele>129.0</ele><time>2026-03-26T09:12:08.002Z</time></trkpt><trkpt lat="43.500553725946666" lon="5.387983133348717"><ele>129.5</ele><time>2026-03-26T09:12:09.002Z</time></trkpt><trkpt lat="43.500631641721434" lon="5.388320097996985"><ele>130.0</ele><time>2026-03-26T09:12:10.002Z</time></trkpt><trkpt lat="43.50070496122536" lon="5.388639792769234"><ele>131.0</ele><time>2026-03-26T09:12:11.002Z</time></trkpt><trkpt lat="43.50078397279508" lon="5.388954556620509"><ele>132.0</ele><time>2026-03-26T09:12:12.002Z</time></trkpt><trkpt lat="43.50085990261513" lon="5.389270986979986"><ele>132.0</ele><time>2026-03-26T09:12:13.002Z</time></trkpt><trkpt lat="43.50093359353856" lon="5.389588458695999"><ele>132.0</ele><time>2026-03-26T09:12:14.002Z</time></trkpt><trkpt lat="43.50101214514984" lon="5.38991642071965"><ele>132.0</ele><time>2026-03-26T09:12:15.002Z</time></trkpt><trkpt lat="43.50108672335719" lon="5.390242591348292"><ele>132.0</ele><time>2026-03-26T09:12:16.002Z</time></trkpt><trkpt lat="43.50116605584887" lon="5.3905449377764825"><ele>129.5</ele><time>2026-03-26T09:12:17.002Z</time></trkpt><trkpt lat="43.50126227735936" lon="5.390848251187876"><ele>127.0</ele><time>2026-03-26T09:12:18.002Z</time></trkpt><trkpt lat="43.501370501752675" lon="5.391144812474245"><ele>127.5</ele><time>2026-03-26T09:12:19.002Z</time></trkpt><trkpt lat="43.50148944773396" lon="5.391429025366544"><ele>128.0</ele><time>2026-03-26T09:12:20.002Z</time></trkpt><trkpt lat="43.50162007374885" lon="5.3917102432533195"><ele>128.0</ele><time>2026-03-26T09:12:21.002Z</time></trkpt><trkpt lat="43.50176541582326" lon="5.391990495702198"><ele>128.0</ele><time>2026-03-26T09:12:22.003Z</time></trkpt><trkpt lat="43.50191443732373" lon="5.392258577926"><ele>128.0</ele><time>2026-03-26T09:12:23.003Z</time></trkpt><trkpt lat="43.50206589728673" lon="5.392525226706833"><ele>128.0</ele><time>2026-03-26T09:12:24.003Z</time></trkpt><trkpt lat="43.50221860979684" lon="5.392794510796704"><ele>126.0</ele><time>2026-03-26T09:12:25.003Z</time></trkpt><trkpt lat="43.50238109138605" lon="5.3930837931324564"><ele>124.0</ele><time>2026-03-26T09:12:26Z</time></trkpt><trkpt lat="43.50255911437828" lon="5.393378462204794"><ele>124.0</ele><time>2026-03-26T09:12:27Z</time></trkpt><trkpt lat="43.50273600943436" lon="5.393684680166298"><ele>124.0</ele><time>2026-03-26T09:12:28Z</time></trkpt><trkpt lat="43.5029286493614" lon="5.3940095297288195"><ele>123.5</ele><time>2026-03-26T09:12:29Z</time></trkpt><trkpt lat="43.503112234672344" lon="5.394346636640462"><ele>123.0</ele><time>2026-03-26T09:12:30Z</time></trkpt><trkpt lat="43.503300436975735" lon="5.394684266722553"><ele>122.5</ele><time>2026-03-26T09:12:31Z</time></trkpt><trkpt lat="43.50349280823425" lon="5.395030489057175"><ele>122.0</ele><time>2026-03-26T09:12:32Z</time></trkpt><trkpt lat="43.50368565919293" lon="5.395383235687617"><ele>120.5</ele><time>2026-03-26T09:12:33Z</time></trkpt><trkpt lat="43.50388385902025" lon="5.395735482399443"><ele>119.0</ele><time>2026-03-26T09:12:34Z</time></trkpt><trkpt lat="43.504082562414546" lon="5.3960898365203525"><ele>119.5</ele><time>2026-03-26T09:12:35Z</time></trkpt><trkpt lat="43.50426812437474" lon="5.396433111836815"><ele>120.0</ele><time>2026-03-26T09:12:36Z</time></trkpt><trkpt lat="43.50444378135716" lon="5.39678802943988"><ele>119.5</ele><time>2026-03-26T09:12:37Z</time></trkpt><trkpt lat="43.504618099059456" lon="5.397157213638884"><ele>119.0</ele><time>2026-03-26T09:12:38Z</time></trkpt><trkpt lat="43.504776519637076" lon="5.397524191761014"><ele>119.0</ele><time>2026-03-26T09:12:39Z</time></trkpt><trkpt lat="43.5049268550222" lon="5.39791187514505"><ele>119.0</ele><time>2026-03-26T09:12:40Z</time></trkpt><trkpt lat="43.50507191496651" lon="5.39831551094193"><ele>119.5</ele><time>2026-03-26T09:12:41Z</time></trkpt><trkpt lat="43.50521473218778" lon="5.398719462797548"><ele>120.0</ele><time>2026-03-26T09:12:42Z</time></trkpt><trkpt lat="43.505353141711296" lon="5.399124725125711"><ele>119.5</ele><time>2026-03-26T09:12:43Z</time></trkpt><trkpt lat="43.505480940131584" lon="5.399515292304345"><ele>119.0</ele><time>2026-03-26T09:12:44Z</time></trkpt><trkpt lat="43.505604109520746" lon="5.399879596557335"><ele>120.0</ele><time>2026-03-26T09:12:45Z</time></trkpt><trkpt lat="43.50570833643163" lon="5.400232000008414"><ele>121.0</ele><time>2026-03-26T09:12:46Z</time></trkpt><trkpt lat="43.5058024421723" lon="5.4005756247278445"><ele>121.0</ele><time>2026-03-26T09:12:47Z</time></trkpt><trkpt lat="43.50588338960591" lon="5.400927449300577"><ele>121.0</ele><time>2026-03-26T09:12:48Z</time></trkpt><trkpt lat="43.50594481990308" lon="5.401305750927291"><ele>121.0</ele><time>2026-03-26T09:12:49Z</time></trkpt><trkpt lat="43.50599197393204" lon="5.401701008262184"><ele>121.0</ele><time>2026-03-26T09:12:50Z</time></trkpt><trkpt lat="43.506022407927325" lon="5.402109258291731"><ele>122.0</ele><time>2026-03-26T09:12:51Z</time></trkpt><trkpt lat="43.506040235132645" lon="5.40252364339099"><ele>123.0</ele><time>2026-03-26T09:12:52Z</time></trkpt><trkpt lat="43.50605491842944" lon="5.402950540473561"><ele>123.0</ele><time>2026-03-26T09:12:53.001Z</time></trkpt><trkpt lat="43.50606851817739" lon="5.403382416461584"><ele>123.0</ele><time>2026-03-26T09:12:54.001Z</time></trkpt><trkpt lat="43.506081128839675" lon="5.403822476761206"><ele>122.5</ele><time>2026-03-26T09:12:55.001Z</time></trkpt><trkpt lat="43.50608812390412" lon="5.404257381760378"><ele>122.0</ele><time>2026-03-26T09:12:56.001Z</time></trkpt><trkpt lat="43.506088685024565" lon="5.404668017745322"><ele>123.0</ele><time>2026-03-26T09:12:57.001Z</time></trkpt><trkpt lat="43.50608926026506" lon="5.405055369640106"><ele>124.0</ele><time>2026-03-26T09:12:58.001Z</time></trkpt><trkpt lat="43.50609199015075" lon="5.4054242989153884"><ele>123.5</ele><time>2026-03-26T09:12:59.001Z</time></trkpt><trkpt lat="43.50610957027472" lon="5.4057637732060115"><ele>123.0</ele><time>2026-03-26T09:13:00.001Z</time></trkpt><trkpt lat="43.50613655504135" lon="5.406121354135195"><ele>124.5</ele><time>2026-03-26T09:13:01.001Z</time></trkpt><trkpt lat="43.506154794573305" lon="5.406457914401818"><ele>126.0</ele><time>2026-03-26T09:13:02.001Z</time></trkpt><trkpt lat="43.50615538969355" lon="5.406761127870978"><ele>126.0</ele><time>2026-03-26T09:13:03.001Z</time></trkpt><trkpt lat="43.50614187954593" lon="5.407062026307547"><ele>126.0</ele><time>2026-03-26T09:13:04.001Z</time></trkpt><trkpt lat="43.50613693937553" lon="5.407359765983042"><ele>126.0</ele><time>2026-03-26T09:13:05.001Z</time></trkpt><trkpt lat="43.506139109920504" lon="5.407630428239077"><ele>125.66666666666666</ele><time>2026-03-26T09:13:06.001Z</time></trkpt><trkpt lat="43.50614646846554" lon="5.407874164842893"><ele>125.33333333333333</ele><time>2026-03-26T09:13:07.001Z</time></trkpt><trkpt lat="43.50614887386337" lon="5.408111242610462"><ele>125.0</ele><time>2026-03-26T09:13:08.001Z</time></trkpt><trkpt lat="43.50615018295237" lon="5.408335983247585"><ele>126.33333333333333</ele><time>2026-03-26T09:13:09.001Z</time></trkpt><trkpt lat="43.506146521813655" lon="5.408553920100189"><ele>127.66666666666666</ele><time>2026-03-26T09:13:10.001Z</time></trkpt><trkpt lat="43.506144398728516" lon="5.408776570256414"><ele>129.0</ele><time>2026-03-26T09:13:11.001Z</time></trkpt><trkpt lat="43.50614258734587" lon="5.408979622404633"><ele>130.0</ele><time>2026-03-26T09:13:12.001Z</time></trkpt><trkpt lat="43.506131795658746" lon="5.409161229775073"><ele>131.0</ele><time>2026-03-26T09:13:13.001Z</time></trkpt><trkpt lat="43.50611819334802" lon="5.409333032926891"><ele>132.0</ele><time>2026-03-26T09:13:14.001Z</time></trkpt><trkpt lat="43.50610685925639" lon="5.409488598336186"><ele>133.0</ele><time>2026-03-26T09:13:15.001Z</time></trkpt><trkpt lat="43.50609201081731" lon="5.40963114653972"><ele>132.4</ele><time>2026-03-26T09:13:16.001Z</time></trkpt><trkpt lat="43.50607457286409" lon="5.409765005218212"><ele>131.8</ele><time>2026-03-26T09:13:17.001Z</time></trkpt><trkpt lat="43.50605979101648" lon="5.40990341870342"><ele>131.2</ele><time>2026-03-26T09:13:18.001Z</time></trkpt><trkpt lat="43.506041699470245" lon="5.410042383179608"><ele>130.6</ele><time>2026-03-26T09:13:19.001Z</time></trkpt><trkpt lat="43.506023605761825" lon="5.410186296540967"><ele>130.0</ele><time>2026-03-26T09:13:20.001Z</time></trkpt><trkpt lat="43.50600496138624" lon="5.410330000799705"><ele>130.0</ele><time>2026-03-26T09:13:21.001Z</time></trkpt><trkpt lat="43.505985594474964" lon="5.410473903770143"><ele>130.0</ele><time>2026-03-26T09:13:22.001Z</time></trkpt><trkpt lat="43.50596947509598" lon="5.410613803440977"><ele>130.0</ele><time>2026-03-26T09:13:23.001Z</time></trkpt><trkpt lat="43.50594274677269" lon="5.410746883677478"><ele>130.0</ele><time>2026-03-26T09:13:24.001Z</time></trkpt><trkpt lat="43.505916592510715" lon="5.410879908534306"><ele>130.0</ele><time>2026-03-26T09:13:25.001Z</time></trkpt><trkpt lat="43.505896717489364" lon="5.411013156282763"><ele>130.4</ele><time>2026-03-26T09:13:26.001Z</time></trkpt><trkpt lat="43.50586717389553" lon="5.411153472917343"><ele>130.8</ele><time>2026-03-26T09:13:27.002Z</time></trkpt><trkpt lat="43.50580902461083" lon="5.41128016758384"><ele>131.2</ele><time>2026-03-26T09:13:28.002Z</time></trkpt><trkpt lat="43.50573257301677" lon="5.4113842427439325"><ele>131.6</ele><time>2026-03-26T09:13:29.002Z</time></trkpt><trkpt lat="43.50564483481366" lon="5.411449188236565"><ele>132.0</ele><time>2026-03-26T09:13:30.002Z</time></trkpt><trkpt lat="43.50555614450964" lon="5.411478733796652"><ele>132.0</ele><time>2026-03-26T09:13:31.002Z</time></trkpt><trkpt lat="43.50547214124879" lon="5.411487788820473"><ele>132.0</ele><time>2026-03-26T09:13:32.002Z</time></trkpt><trkpt lat="43.505387118253466" lon="5.411470124052181"><ele>132.0</ele><time>2026-03-26T09:13:33.002Z</time></trkpt><trkpt lat="43.505303880837616" lon="5.411424703824205"><ele>132.0</ele><time>2026-03-26T09:13:34.002Z</time></trkpt><trkpt lat="43.50522948940848" lon="5.41135917942076"><ele>132.0</ele><time>2026-03-26T09:13:35.002Z</time></trkpt><trkpt lat="43.505169389803385" lon="5.411277838855622"><ele>132.0</ele><time>2026-03-26T09:13:36.002Z</time></trkpt><trkpt lat="43.50512326576394" lon="5.411184850330562"><ele>131.2</ele><time>2026-03-26T09:13:37.002Z</time></trkpt><trkpt lat="43.50508628161219" lon="5.411077141051655"><ele>130.39999999999998</ele><time>2026-03-26T09:13:38.002Z</time></trkpt><trkpt lat="43.505060666843406" lon="5.410953152195874"><ele>129.60000000000002</ele><time>2026-03-26T09:13:39.002Z</time></trkpt><trkpt lat="43.50505651820856" lon="5.41081682797329"><ele>128.8</ele><time>2026-03-26T09:13:40.002Z</time></trkpt><trkpt lat="43.50508190981475" lon="5.410688422805465"><ele>128.0</ele><time>2026-03-26T09:13:41.002Z</time></trkpt><trkpt lat="43.505125337542886" lon="5.410573805014801"><ele>128.20000000000002</ele><time>2026-03-26T09:13:42.002Z</time></trkpt><trkpt lat="43.505175611130184" lon="5.410476596177916"><ele>128.4</ele><time>2026-03-26T09:13:43.002Z</time></trkpt><trkpt lat="43.505251466235535" lon="5.410392032265098"><ele>128.60000000000002</ele><time>2026-03-26T09:13:44.002Z</time></trkpt><trkpt lat="43.505339444959645" lon="5.410328157163858"><ele>128.8</ele><time>2026-03-26T09:13:45.002Z</time></trkpt><trkpt lat="43.505445353348236" lon="5.410286767098745"><ele>129.0</ele><time>2026-03-26T09:13:46.002Z</time></trkpt><trkpt lat="43.5055378204541" lon="5.410293301604815"><ele>129.2</ele><time>2026-03-26T09:13:47.002Z</time></trkpt><trkpt lat="43.50562718188688" lon="5.41032074728059"><ele>129.4</ele><time>2026-03-26T09:13:48.002Z</time></trkpt><trkpt lat="43.50571667054233" lon="5.410369074155861"><ele>129.6</ele><time>2026-03-26T09:13:49.002Z</time></trkpt><trkpt lat="43.50580820936606" lon="5.410441170517011"><ele>129.8</ele><time>2026-03-26T09:13:50.002Z</time></trkpt><trkpt lat="43.50591404310994" lon="5.410544469156804"><ele>130.0</ele><time>2026-03-26T09:13:51.002Z</time></trkpt><trkpt lat="43.50604436683078" lon="5.410679502384852"><ele>130.66666666666669</ele><time>2026-03-26T09:13:52.002Z</time></trkpt><trkpt lat="43.506162276451356" lon="5.41080003810226"><ele>131.33333333333334</ele><time>2026-03-26T09:13:53.002Z</time></trkpt><trkpt lat="43.50628920634479" lon="5.410911283307832"><ele>132.0</ele><time>2026-03-26T09:13:54.002Z</time></trkpt><trkpt lat="43.50642209634337" lon="5.411044418932978"><ele>130.66666666666666</ele><time>2026-03-26T09:13:55.002Z</time></trkpt><trkpt lat="43.50656682398945" lon="5.411228669291922"><ele>129.33333333333331</ele><time>2026-03-26T09:13:56.002Z</time></trkpt><trkpt lat="43.506698383900485" lon="5.41137811987255"><ele>128.0</ele><time>2026-03-26T09:13:57.002Z</time></trkpt><trkpt lat="43.506837340890286" lon="5.411530848525557"><ele>127.33333333333333</ele><time>2026-03-26T09:13:58.002Z</time></trkpt><trkpt lat="43.50699937064635" lon="5.411707436485569"><ele>126.66666666666666</ele><time>2026-03-26T09:13:59.002Z</time></trkpt><trkpt lat="43.50717185988675" lon="5.411900188242423"><ele>126.0</ele><time>2026-03-26T09:14:00.002Z</time></trkpt><trkpt lat="43.50733747516289" lon="5.412092241629945"><ele>126.0</ele><time>2026-03-26T09:14:01.002Z</time></trkpt><trkpt lat="43.507495312305004" lon="5.41229047453213"><ele>126.0</ele><time>2026-03-26T09:14:02.003Z</time></trkpt><trkpt lat="43.507641128429505" lon="5.412478399585932"><ele>126.0</ele><time>2026-03-26T09:14:03.003Z</time></trkpt><trkpt lat="43.507791796055685" lon="5.412669620670192"><ele>125.66666666666666</ele><time>2026-03-26T09:14:04.003Z</time></trkpt><trkpt lat="43.507939596413756" lon="5.4128619737834045"><ele>125.33333333333333</ele><time>2026-03-26T09:14:05.003Z</time></trkpt><trkpt lat="43.50807393558857" lon="5.4130467439487004"><ele>125.0</ele><time>2026-03-26T09:14:06.003Z</time></trkpt><trkpt lat="43.508182987200975" lon="5.41321132112704"><ele>125.0</ele><time>2026-03-26T09:14:07.003Z</time></trkpt><trkpt lat="43.50827555659089" lon="5.4133695356980995"><ele>125.0</ele><time>2026-03-26T09:14:08.003Z</time></trkpt><trkpt lat="43.508370660147264" lon="5.413534028046831"><ele>125.0</ele><time>2026-03-26T09:14:09.003Z</time></trkpt><trkpt lat="43.508482894953744" lon="5.413715854252625"><ele>125.0</ele><time>2026-03-26T09:14:10.003Z</time></trkpt><trkpt lat="43.50861529272075" lon="5.413921477409074"><ele>125.0</ele><time>2026-03-26T09:14:11.003Z</time></trkpt><trkpt lat="43.50874436137174" lon="5.414133926611344"><ele>125.0</ele><time>2026-03-26T09:14:12.003Z</time></trkpt><trkpt lat="43.50886824562125" lon="5.4143492375357045"><ele>125.5</ele><time>2026-03-26T09:14:13.003Z</time></trkpt><trkpt lat="43.50899509196929" lon="5.414581166107233"><ele>126.0</ele><time>2026-03-26T09:14:14.003Z</time></trkpt><trkpt lat="43.50913800426932" lon="5.414846226346541"><ele>125.0</ele><time>2026-03-26T09:14:15.003Z</time></trkpt><trkpt lat="43.5092761357761" lon="5.415106295459162"><ele>124.0</ele><time>2026-03-26T09:14:16.003Z</time></trkpt><trkpt lat="43.509401682264105" lon="5.415360424686337"><ele>123.5</ele><time>2026-03-26T09:14:17.003Z</time></trkpt><trkpt lat="43.509529696892194" lon="5.415625578051615"><ele>123.0</ele><time>2026-03-26T09:14:18.003Z</time></trkpt><trkpt lat="43.50966503366374" lon="5.41591031860759"><ele>122.5</ele><time>2026-03-26T09:14:19.003Z</time></trkpt><trkpt lat="43.509797943311796" lon="5.4161975478937086"><ele>122.0</ele><time>2026-03-26T09:14:20.003Z</time></trkpt><trkpt lat="43.509924013568565" lon="5.4164804003666625"><ele>122.0</ele><time>2026-03-26T09:14:21.003Z</time></trkpt><trkpt lat="43.51004770871652" lon="5.416768084700284"><ele>122.0</ele><time>2026-03-26T09:14:22.003Z</time></trkpt><trkpt lat="43.5101689402126" lon="5.417068967241943"><ele>122.0</ele><time>2026-03-26T09:14:23.003Z</time></trkpt><trkpt lat="43.51028663678754" lon="5.417375751307426"><ele>122.0</ele><time>2026-03-26T09:14:24.003Z</time></trkpt><trkpt lat="43.51040161443876" lon="5.417685163431169"><ele>125.5</ele><time>2026-03-26T09:14:25.003Z</time></trkpt><trkpt lat="43.51051455404778" lon="5.4179972469732744"><ele>129.0</ele><time>2026-03-26T09:14:26.003Z</time></trkpt><trkpt lat="43.5106224984009" lon="5.418315093684169"><ele>129.0</ele><time>2026-03-26T09:14:27.003Z</time></trkpt><trkpt lat="43.510728267067584" lon="5.418640895556298"><ele>129.0</ele><time>2026-03-26T09:14:28.003Z</time></trkpt><trkpt lat="43.51083720808264" lon="5.418994208983783"><ele>128.0</ele><time>2026-03-26T09:14:29.003Z</time></trkpt><trkpt lat="43.51094933367167" lon="5.419363005036842"><ele>127.0</ele><time>2026-03-26T09:14:30.003Z</time></trkpt><trkpt lat="43.51105787705864" lon="5.419747029131368"><ele>127.0</ele><time>2026-03-26T09:14:31.003Z</time></trkpt><trkpt lat="43.511156795861176" lon="5.420152678530538"><ele>127.0</ele><time>2026-03-26T09:14:32.002Z</time></trkpt><trkpt lat="43.51124517596695" lon="5.420578115121151"><ele>127.5</ele><time>2026-03-26T09:14:33.002Z</time></trkpt><trkpt lat="43.511332405306646" lon="5.42100850230593"><ele>128.0</ele><time>2026-03-26T09:14:34.002Z</time></trkpt><trkpt lat="43.51141496919855" lon="5.4214536282942305"><ele>127.0</ele><time>2026-03-26T09:14:35.002Z</time></trkpt><trkpt lat="43.51150288917297" lon="5.421883817307169"><ele>126.0</ele><time>2026-03-26T09:14:36.001Z</time></trkpt><trkpt lat="43.51158738718865" lon="5.422345761393962"><ele>126.0</ele><time>2026-03-26T09:14:37.001Z</time></trkpt><trkpt lat="43.511686049072644" lon="5.422798092525113"><ele>126.0</ele><time>2026-03-26T09:14:38.001Z</time></trkpt><trkpt lat="43.51179786620944" lon="5.423254372265993"><ele>125.0</ele><time>2026-03-26T09:14:39.001Z</time></trkpt><trkpt lat="43.51192344350629" lon="5.423701856980629"><ele>124.0</ele><time>2026-03-26T09:14:40.001Z</time></trkpt><trkpt lat="43.512073518536305" lon="5.424146297216459"><ele>125.5</ele><time>2026-03-26T09:14:41.001Z</time></trkpt><trkpt lat="43.51223905065327" lon="5.424583243479915"><ele>127.0</ele><time>2026-03-26T09:14:42.001Z</time></trkpt><trkpt lat="43.51241783511914" lon="5.425012884068972"><ele>127.0</ele><time>2026-03-26T09:14:43.001Z</time></trkpt><trkpt lat="43.51260307975579" lon="5.425425252942517"><ele>127.0</ele><time>2026-03-26T09:14:44.001Z</time></trkpt><trkpt lat="43.51279601462909" lon="5.425835693928999"><ele>129.5</ele><time>2026-03-26T09:14:45.001Z</time></trkpt><trkpt lat="43.512986551693736" lon="5.426244956127337"><ele>132.0</ele><time>2026-03-26T09:14:46.001Z</time></trkpt><trkpt lat="43.51318003716903" lon="5.426661408802017"><ele>132.0</ele><time>2026-03-26T09:14:47.001Z</time></trkpt><trkpt lat="43.51337445530399" lon="5.427072605090228"><ele>132.0</ele><time>2026-03-26T09:14:48.001Z</time></trkpt><trkpt lat="43.513579729505594" lon="5.427480696750221"><ele>133.5</ele><time>2026-03-26T09:14:49.001Z</time></trkpt><trkpt lat="43.51379882728305" lon="5.42787263898397"><ele>135.0</ele><time>2026-03-26T09:14:50.001Z</time></trkpt><trkpt lat="43.514037483223056" lon="5.428236936883992"><ele>135.0</ele><time>2026-03-26T09:14:51.001Z</time></trkpt><trkpt lat="43.51428764065389" lon="5.428581777496526"><ele>135.0</ele><time>2026-03-26T09:14:52.001Z</time></trkpt><trkpt lat="43.51455289199504" lon="5.4289017606634555"><ele>136.5</ele><time>2026-03-26T09:14:53.001Z</time></trkpt><trkpt lat="43.514825153788124" lon="5.429210345906268"><ele>138.0</ele><time>2026-03-26T09:14:54.001Z</time></trkpt><trkpt lat="43.51509344578853" lon="5.429509853243165"><ele>138.5</ele><time>2026-03-26T09:14:55.001Z</time></trkpt><trkpt lat="43.51533187994158" lon="5.429793720277211"><ele>139.0</ele><time>2026-03-26T09:14:56.001Z</time></trkpt><trkpt lat="43.51555561335603" lon="5.430051304884118"><ele>141.5</ele><time>2026-03-26T09:14:57.001Z</time></trkpt><trkpt lat="43.51576604389114" lon="5.4302923802283525"><ele>144.0</ele><time>2026-03-26T09:14:58.001Z</time></trkpt><trkpt lat="43.51596849539716" lon="5.430519593814877"><ele>145.0</ele><time>2026-03-26T09:14:59.001Z</time></trkpt><trkpt lat="43.51615698782295" lon="5.430734797733629"><ele>146.0</ele><time>2026-03-26T09:15:00.001Z</time></trkpt><trkpt lat="43.51634361346841" lon="5.430953507908288"><ele>146.66666666666666</ele><time>2026-03-26T09:15:01.001Z</time></trkpt><trkpt lat="43.51650318897277" lon="5.4311664806083755"><ele>147.33333333333334</ele><time>2026-03-26T09:15:02.001Z</time></trkpt><trkpt lat="43.51664645664088" lon="5.431330198067838"><ele>148.0</ele><time>2026-03-26T09:15:03Z</time></trkpt><trkpt lat="43.51678539134066" lon="5.431513702227915"><ele>148.5</ele><time>2026-03-26T09:15:04Z</time></trkpt><trkpt lat="43.51694212933745" lon="5.43171966108695"><ele>149.0</ele><time>2026-03-26T09:15:05Z</time></trkpt><trkpt lat="43.51712282984905" lon="5.431933741690712"><ele>149.0</ele><time>2026-03-26T09:15:06Z</time></trkpt><trkpt lat="43.517288647743335" lon="5.432134310504353"><ele>149.0</ele><time>2026-03-26T09:15:07Z</time></trkpt><trkpt lat="43.51748525762408" lon="5.4323418186333345"><ele>149.0</ele><time>2026-03-26T09:15:08.001Z</time></trkpt><trkpt lat="43.5176559170472" lon="5.432545713504776"><ele>149.0</ele><time>2026-03-26T09:15:09.001Z</time></trkpt><trkpt lat="43.517798418873554" lon="5.432763345349108"><ele>149.0</ele><time>2026-03-26T09:15:10.001Z</time></trkpt><trkpt lat="43.51793380456734" lon="5.432942971676348"><ele>149.33333333333331</ele><time>2026-03-26T09:15:11.001Z</time></trkpt><trkpt lat="43.51805975677326" lon="5.433118970609053"><ele>149.66666666666666</ele><time>2026-03-26T09:15:12.001Z</time></trkpt><trkpt lat="43.518169500153334" lon="5.433285071510471"><ele>150.0</ele><time>2026-03-26T09:15:13.001Z</time></trkpt><trkpt lat="43.518267582311566" lon="5.433434083302063"><ele>150.0</ele><time>2026-03-26T09:15:14.001Z</time></trkpt><trkpt lat="43.51836797714985" lon="5.433561657487587"><ele>150.0</ele><time>2026-03-26T09:15:15.001Z</time></trkpt><trkpt lat="43.51846591051256" lon="5.433660782644714"><ele>150.0</ele><time>2026-03-26T09:15:16.001Z</time></trkpt><trkpt lat="43.51856789976361" lon="5.43377932534998"><ele>150.0</ele><time>2026-03-26T09:15:17.001Z</time></trkpt><trkpt lat="43.518684704519465" lon="5.433894955318583"><ele>150.66666666666666</ele><time>2026-03-26T09:15:18.001Z</time></trkpt><trkpt lat="43.51883003613642" lon="5.433956812329686"><ele>151.33333333333331</ele><time>2026-03-26T09:15:19.001Z</time></trkpt><trkpt lat="43.51899862240937" lon="5.43399127749945"><ele>152.0</ele><time>2026-03-26T09:15:20.001Z</time></trkpt><trkpt lat="43.519148982050424" lon="5.434060893779986"><ele>152.0</ele><time>2026-03-26T09:15:21.001Z</time></trkpt><trkpt lat="43.51927895571205" lon="5.434172900206981"><ele>152.0</ele><time>2026-03-26T09:15:22.001Z</time></trkpt><trkpt lat="43.519436374412926" lon="5.4343034404758335"><ele>152.0</ele><time>2026-03-26T09:15:23.001Z</time></trkpt><trkpt lat="43.519602679933634" lon="5.434454006381087"><ele>153.0</ele><time>2026-03-26T09:15:24.001Z</time></trkpt><trkpt lat="43.51974651101203" lon="5.434608368192064"><ele>154.0</ele><time>2026-03-26T09:15:25.001Z</time></trkpt><trkpt lat="43.51985520709339" lon="5.434732725829939"><ele>155.0</ele><time>2026-03-26T09:15:26.001Z</time></trkpt><trkpt lat="43.519943333825935" lon="5.434823935018956"><ele>156.0</ele><time>2026-03-26T09:15:27.001Z</time></trkpt><trkpt lat="43.52003227361968" lon="5.434933009965744"><ele>156.0</ele><time>2026-03-26T09:15:28.001Z</time></trkpt><trkpt lat="43.52015995436716" lon="5.435053361079063"><ele>156.0</ele><time>2026-03-26T09:15:29.001Z</time></trkpt><trkpt lat="43.52031960842756" lon="5.435171150987541"><ele>156.0</ele><time>2026-03-26T09:15:30.001Z</time></trkpt><trkpt lat="43.52048395529186" lon="5.435329968058681"><ele>158.66666666666666</ele><time>2026-03-26T09:15:31.001Z</time></trkpt><trkpt lat="43.52065434385921" lon="5.435512359871011"><ele>161.33333333333331</ele><time>2026-03-26T09:15:32.001Z</time></trkpt><trkpt lat="43.520836543536525" lon="5.435700620711539"><ele>164.0</ele><time>2026-03-26T09:15:33.001Z</time></trkpt><trkpt lat="43.521009385364074" lon="5.4358673814870455"><ele>164.0</ele><time>2026-03-26T09:15:34.001Z</time></trkpt><trkpt lat="43.52119532131042" lon="5.4360453447594566"><ele>164.0</ele><time>2026-03-26T09:15:35.001Z</time></trkpt><trkpt lat="43.52139360100478" lon="5.436225646903372"><ele>166.0</ele><time>2026-03-26T09:15:36.001Z</time></trkpt><trkpt lat="43.521607027684006" lon="5.436396275758814"><ele>168.0</ele><time>2026-03-26T09:15:37.001Z</time></trkpt><trkpt lat="43.52184059980034" lon="5.436536521309226"><ele>169.5</ele><time>2026-03-26T09:15:38.001Z</time></trkpt><trkpt lat="43.522068005520325" lon="5.4366398222059775"><ele>171.0</ele><time>2026-03-26T09:15:39.001Z</time></trkpt><trkpt lat="43.52227273576081" lon="5.436714267984722"><ele>171.0</ele><time>2026-03-26T09:15:40.001Z</time></trkpt><trkpt lat="43.522456620830596" lon="5.4367860360773"><ele>171.0</ele><time>2026-03-26T09:15:41.001Z</time></trkpt><trkpt lat="43.52262477127015" lon="5.436861873624892"><ele>171.0</ele><time>2026-03-26T09:15:42.001Z</time></trkpt><trkpt lat="43.522773394501755" lon="5.436927687948452"><ele>171.8</ele><time>2026-03-26T09:15:43.001Z</time></trkpt><trkpt lat="43.52290156797326" lon="5.436985974038765"><ele>172.60000000000002</ele><time>2026-03-26T09:15:44.001Z</time></trkpt><trkpt lat="43.52300706129611" lon="5.437035675104856"><ele>173.4</ele><time>2026-03-26T09:15:45.001Z</time></trkpt><trkpt lat="43.5230953819129" lon="5.437076276977718"><ele>174.2</ele><time>2026-03-26T09:15:46.001Z</time></trkpt><trkpt lat="43.52317195253266" lon="5.437112818428936"><ele>175.0</ele><time>2026-03-26T09:15:47.001Z</time></trkpt><trkpt lat="43.52323483292492" lon="5.437145326921648"><ele>175.4</ele><time>2026-03-26T09:15:48.001Z</time></trkpt><trkpt lat="43.52333622900142" lon="5.4371899198459515"><ele>175.8</ele><time>2026-03-26T09:15:50.001Z</time></trkpt><trkpt lat="43.52341269010851" lon="5.437224907682581"><ele>176.2</ele><time>2026-03-26T09:16:16.001Z</time></trkpt><trkpt lat="43.52348281655744" lon="5.437260733305155"><ele>176.6</ele><time>2026-03-26T09:16:17.001Z</time></trkpt><trkpt lat="43.52359813515723" lon="5.437291241505727"><ele>177.0</ele><time>2026-03-26T09:16:18.001Z</time></trkpt><trkpt lat="43.52372806597235" lon="5.437314605737372"><ele>177.33333333333334</ele><time>2026-03-26T09:16:19.001Z</time></trkpt><trkpt lat="43.52390449553713" lon="5.437393665284211"><ele>177.66666666666669</ele><time>2026-03-26T09:16:20.001Z</time></trkpt><trkpt lat="43.52410331208114" lon="5.437482786380609"><ele>178.0</ele><time>2026-03-26T09:16:21.001Z</time></trkpt><trkpt lat="43.52432265471504" lon="5.437581917356913"><ele>178.0</ele><time>2026-03-26T09:16:22.001Z</time></trkpt><trkpt lat="43.524546013605175" lon="5.437690269837695"><ele>178.0</ele><time>2026-03-26T09:16:23.001Z</time></trkpt><trkpt lat="43.52474008436819" lon="5.437792762148083"><ele>178.0</ele><time>2026-03-26T09:16:24.001Z</time></trkpt><trkpt lat="43.524629066446884" lon="5.43779078382239"><ele>178.66666666666669</ele><time>2026-03-26T09:16:25.001Z</time></trkpt><trkpt lat="43.52478603608667" lon="5.43792311534213"><ele>179.33333333333334</ele><time>2026-03-26T09:16:26.001Z</time></trkpt><trkpt lat="43.5249426514213" lon="5.438055525865343"><ele>180.0</ele><time>2026-03-26T09:16:27.001Z</time></trkpt><trkpt lat="43.525083484599676" lon="5.4381760831069155"><ele>180.0</ele><time>2026-03-26T09:16:28.002Z</time></trkpt><trkpt lat="43.52521786563341" lon="5.438278723671456"><ele>180.0</ele><time>2026-03-26T09:16:29.002Z</time></trkpt><trkpt lat="43.525336108165234" lon="5.438366273476055"><ele>180.0</ele><time>2026-03-26T09:16:30.002Z</time></trkpt><trkpt lat="43.525457977589625" lon="5.438459046158337"><ele>180.0</ele><time>2026-03-26T09:16:31.002Z</time></trkpt><trkpt lat="43.525559672610974" lon="5.4385621725001965"><ele>179.4</ele><time>2026-03-26T09:16:32.002Z</time></trkpt><trkpt lat="43.5256535311852" lon="5.438652279442323"><ele>178.8</ele><time>2026-03-26T09:16:33.002Z</time></trkpt><trkpt lat="43.525743612765275" lon="5.438739255123403"><ele>178.2</ele><time>2026-03-26T09:16:34.002Z</time></trkpt><trkpt lat="43.52582527603915" lon="5.438823306487431"><ele>177.6</ele><time>2026-03-26T09:16:35.002Z</time></trkpt><trkpt lat="43.52589445646498" lon="5.438901528432036"><ele>177.0</ele><time>2026-03-26T09:16:36.002Z</time></trkpt><trkpt lat="43.52596137338993" lon="5.438959485712125"><ele>177.0</ele><time>2026-03-26T09:16:37.002Z</time></trkpt><trkpt lat="43.526061560014" lon="5.439073450601829"><ele>177.0</ele><time>2026-03-26T09:16:39Z</time></trkpt><trkpt lat="43.52612203241091" lon="5.439127988003052"><ele>177.0</ele><time>2026-03-26T09:16:40Z</time></trkpt><trkpt lat="43.52625267635129" lon="5.439339850014618"><ele>177.0</ele><time>2026-03-26T09:16:41Z</time></trkpt><trkpt lat="43.52632063110956" lon="5.439457719969938"><ele>177.8</ele><time>2026-03-26T09:16:42Z</time></trkpt><trkpt lat="43.52637859750908" lon="5.439591180766816"><ele>178.6</ele><time>2026-03-26T09:16:43Z</time></trkpt><trkpt lat="43.526434544423445" lon="5.439704763697449"><ele>179.4</ele><time>2026-03-26T09:16:44Z</time></trkpt><trkpt lat="43.52645281544444" lon="5.439858119107758"><ele>180.20000000000002</ele><time>2026-03-26T09:16:45Z</time></trkpt><trkpt lat="43.52643328420116" lon="5.440009954350464"><ele>181.0</ele><time>2026-03-26T09:16:46Z</time></trkpt><trkpt lat="43.52640256406564" lon="5.440158948329602"><ele>181.0</ele><time>2026-03-26T09:16:47Z</time></trkpt><trkpt lat="43.526364373006466" lon="5.440319010959411"><ele>181.0</ele><time>2026-03-26T09:16:48Z</time></trkpt><trkpt lat="43.52631440196425" lon="5.440458550118937"><ele>181.0</ele><time>2026-03-26T09:16:49Z</time></trkpt><trkpt lat="43.52625601640814" lon="5.440602634839488"><ele>181.0</ele><time>2026-03-26T09:16:50Z</time></trkpt><trkpt lat="43.52620004499588" lon="5.440737255244077"><ele>181.8</ele><time>2026-03-26T09:16:51Z</time></trkpt><trkpt lat="43.52614776166461" lon="5.4408481805295725"><ele>182.60000000000002</ele><time>2026-03-26T09:16:52Z</time></trkpt><trkpt lat="43.52610243084133" lon="5.440936614608734"><ele>183.4</ele><time>2026-03-26T09:16:53Z</time></trkpt><trkpt lat="43.52604640338335" lon="5.441060814376827"><ele>184.2</ele><time>2026-03-26T09:16:55Z</time></trkpt><trkpt lat="43.52599971685179" lon="5.441169039878092"><ele>185.0</ele><time>2026-03-26T09:16:56Z</time></trkpt><trkpt lat="43.52595288138198" lon="5.4413090015291266"><ele>185.0</ele><time>2026-03-26T09:16:57Z</time></trkpt><trkpt lat="43.52591071569275" lon="5.441445465046291"><ele>185.0</ele><time>2026-03-26T09:16:58Z</time></trkpt><trkpt lat="43.52587784079349" lon="5.441591325626426"><ele>185.0</ele><time>2026-03-26T09:16:59Z</time></trkpt><trkpt lat="43.52586030955196" lon="5.441731347441195"><ele>185.0</ele><time>2026-03-26T09:17:00Z</time></trkpt><trkpt lat="43.52584896252573" lon="5.441836108498824"><ele>185.0</ele><time>2026-03-26T09:17:01Z</time></trkpt><trkpt lat="43.52584009427785" lon="5.441922119980401"><ele>185.0</ele><time>2026-03-26T09:17:02Z</time></trkpt><trkpt lat="43.525830719566976" lon="5.442047179045194"><ele>185.0</ele><time>2026-03-26T09:17:04Z</time></trkpt><trkpt lat="43.52586950905428" lon="5.442144917517582"><ele>185.0</ele><time>2026-03-26T09:17:10Z</time></trkpt><trkpt lat="43.52593871525449" lon="5.442198737883215"><ele>185.0</ele><time>2026-03-26T09:17:12Z</time></trkpt><trkpt lat="43.52599735475879" lon="5.442246398207074"><ele>185.0</ele><time>2026-03-26T09:17:13Z</time></trkpt><trkpt lat="43.52607065495305" lon="5.44230179469703"><ele>185.0</ele><time>2026-03-26T09:17:14Z</time></trkpt><trkpt lat="43.52612277217454" lon="5.442394157032452"><ele>185.4</ele><time>2026-03-26T09:17:15Z</time></trkpt><trkpt lat="43.526201277619805" lon="5.442473069417952"><ele>185.8</ele><time>2026-03-26T09:17:17Z</time></trkpt><trkpt lat="43.52628675871902" lon="5.44253803047558"><ele>186.2</ele><time>2026-03-26T09:17:19Z</time></trkpt><trkpt lat="43.526350861151506" lon="5.442592553597224"><ele>186.6</ele><time>2026-03-26T09:17:21.001Z</time></trkpt><trkpt lat="43.526460596554905" lon="5.442669641758058"><ele>187.0</ele><time>2026-03-26T09:17:23.001Z</time></trkpt><trkpt lat="43.526601596572576" lon="5.442724817389228"><ele>187.0</ele><time>2026-03-26T09:17:28.001Z</time></trkpt><trkpt lat="43.52669394961157" lon="5.4427978134273065"><ele>187.0</ele><time>2026-03-26T09:17:29.001Z</time></trkpt><trkpt lat="43.52675645191966" lon="5.442865472084753"><ele>187.0</ele><time>2026-03-26T09:17:30.001Z</time></trkpt><trkpt lat="43.52686051594021" lon="5.442952323135287"><ele>187.0</ele><time>2026-03-26T09:17:32.001Z</time></trkpt><trkpt lat="43.52693359190846" lon="5.442994126142686"><ele>187.0</ele><time>2026-03-26T09:17:33.001Z</time></trkpt><trkpt lat="43.52698669157997" lon="5.4430487115080375"><ele>187.66666666666669</ele><time>2026-03-26T09:17:34.001Z</time></trkpt><trkpt lat="43.52706530266905" lon="5.44311875344089"><ele>188.33333333333334</ele><time>2026-03-26T09:17:36.001Z</time></trkpt><trkpt lat="43.52713618962878" lon="5.443199073765505"><ele>189.0</ele><time>2026-03-26T09:17:38.001Z</time></trkpt><trkpt lat="43.52719503760542" lon="5.443240632706281"><ele>189.66666666666666</ele><time>2026-03-26T09:17:41.001Z</time></trkpt><trkpt lat="43.52725830996495" lon="5.443306484593875"><ele>190.33333333333331</ele><time>2026-03-26T09:17:49.001Z</time></trkpt><trkpt lat="43.52732998916485" lon="5.443351018065789"><ele>191.0</ele><time>2026-03-26T09:17:55.001Z</time></trkpt><trkpt lat="43.5274095932499" lon="5.443370627861537"><ele>191.0</ele><time>2026-03-26T09:17:56.001Z</time></trkpt><trkpt lat="43.527489495300884" lon="5.443379673765978"><ele>191.0</ele><time>2026-03-26T09:17:57.001Z</time></trkpt><trkpt lat="43.52756637255442" lon="5.443378103859452"><ele>191.0</ele><time>2026-03-26T09:17:59.001Z</time></trkpt><trkpt lat="43.52766063979776" lon="5.443412860859716"><ele>191.0</ele><time>2026-03-26T09:18:01.001Z</time></trkpt><trkpt lat="43.52774460368594" lon="5.443454767104176"><ele>191.0</ele><time>2026-03-26T09:18:03.001Z</time></trkpt><trkpt lat="43.52782785662238" lon="5.443485404396262"><ele>191.0</ele><time>2026-03-26T09:18:05.001Z</time></trkpt><trkpt lat="43.5279406836569" lon="5.443537742481604"><ele>191.8</ele><time>2026-03-26T09:18:07.001Z</time></trkpt><trkpt lat="43.528023694916804" lon="5.443591652912187"><ele>192.60000000000002</ele><time>2026-03-26T09:18:09.001Z</time></trkpt><trkpt lat="43.52811632297166" lon="5.443608277197813"><ele>193.4</ele><time>2026-03-26T09:18:11.001Z</time></trkpt><trkpt lat="43.52821300377396" lon="5.443657363021629"><ele>194.2</ele><time>2026-03-26T09:18:13.001Z</time></trkpt><trkpt lat="43.52832292584213" lon="5.443685313416619"><ele>195.0</ele><time>2026-03-26T09:18:15.001Z</time></trkpt><trkpt lat="43.528429336617876" lon="5.443738401526039"><ele>195.0</ele><time>2026-03-26T09:18:17.001Z</time></trkpt><trkpt lat="43.52853048290511" lon="5.443767153876409"><ele>195.0</ele><time>2026-03-26T09:18:19.001Z</time></trkpt><trkpt lat="43.52861422255127" lon="5.443794842623982"><ele>195.0</ele><time>2026-03-26T09:18:21.001Z</time></trkpt><trkpt lat="43.52868120664447" lon="5.443814108407066"><ele>195.0</ele><time>2026-03-26T09:18:22.001Z</time></trkpt><trkpt lat="43.5287803032802" lon="5.4438768739233305"><ele>195.0</ele><time>2026-03-26T09:18:23.001Z</time></trkpt><trkpt lat="43.52887353170084" lon="5.443896461012632"><ele>195.83333333333334</ele><time>2026-03-26T09:18:24.001Z</time></trkpt><trkpt lat="43.528954643502615" lon="5.443914263883659"><ele>196.66666666666669</ele><time>2026-03-26T09:18:25.001Z</time></trkpt><trkpt lat="43.529021914022074" lon="5.443950960856801"><ele>197.5</ele><time>2026-03-26T09:18:26.001Z</time></trkpt><trkpt lat="43.52908664018169" lon="5.443971148619117"><ele>198.33333333333334</ele><time>2026-03-26T09:18:27.001Z</time></trkpt><trkpt lat="43.52914751038529" lon="5.443996924022596"><ele>199.16666666666669</ele><time>2026-03-26T09:18:28.001Z</time></trkpt><trkpt lat="43.52926465129652" lon="5.444010304909181"><ele>200.0</ele><time>2026-03-26T09:18:30.001Z</time></trkpt><trkpt lat="43.529326478490944" lon="5.444075353817898"><ele>200.00000000000003</ele><time>2026-03-26T09:18:33.002Z</time></trkpt><trkpt lat="43.529381159621266" lon="5.444155799773427"><ele>200.0</ele><time>2026-03-26T09:18:37.002Z</time></trkpt><trkpt lat="43.529451297417346" lon="5.444163974266057"><ele>200.0</ele><time>2026-03-26T09:18:39.002Z</time></trkpt><trkpt lat="43.52952115212348" lon="5.444201440453015"><ele>200.0</ele><time>2026-03-26T09:18:41.002Z</time></trkpt><trkpt lat="43.52955120121514" lon="5.444318029612604"><ele>200.00000000000003</ele><time>2026-03-26T09:18:43.002Z</time></trkpt><trkpt lat="43.52954276039745" lon="5.444442803195659"><ele>200.0</ele><time>2026-03-26T09:18:45Z</time></trkpt><trkpt lat="43.52953372844989" lon="5.444532195226648"><ele>200.0</ele><time>2026-03-26T09:18:46Z</time></trkpt><trkpt lat="43.529530236711985" lon="5.444637934511692"><ele>200.0</ele><time>2026-03-26T09:18:47Z</time></trkpt><trkpt lat="43.52950675036261" lon="5.444784719149968"><ele>200.0</ele><time>2026-03-26T09:18:49Z</time></trkpt><trkpt lat="43.52949239476526" lon="5.444952530709203"><ele>200.0</ele><time>2026-03-26T09:18:51Z</time></trkpt><trkpt lat="43.529451609242926" lon="5.445115811923756"><ele>200.0</ele><time>2026-03-26T09:18:53Z</time></trkpt><trkpt lat="43.52945033568125" lon="5.445236409722825"><ele>200.00000000000003</ele><time>2026-03-26T09:18:55Z</time></trkpt><trkpt lat="43.529483104570176" lon="5.44532381950988"><ele>200.0</ele><time>2026-03-26T09:19:01Z</time></trkpt><trkpt lat="43.52948423387941" lon="5.445442702894664"><ele>200.0</ele><time>2026-03-26T09:19:04Z</time></trkpt><trkpt lat="43.529474634684846" lon="5.445585815740856"><ele>200.0</ele><time>2026-03-26T09:19:07Z</time></trkpt><trkpt lat="43.52948921012373" lon="5.445691822303541"><ele>200.00000000000003</ele><time>2026-03-26T09:19:09Z</time></trkpt><trkpt lat="43.529483201620636" lon="5.4457992120815835"><ele>200.0</ele><time>2026-03-26T09:19:12Z</time></trkpt><trkpt lat="43.52946711158039" lon="5.445906567354873"><ele>200.00000000000003</ele><time>2026-03-26T09:19:15Z</time></trkpt><trkpt lat="43.52949545098041" lon="5.446007782477199"><ele>200.0</ele><time>2026-03-26T09:19:19Z</time></trkpt><trkpt lat="43.52950896533359" lon="5.446123580477488"><ele>200.0</ele><time>2026-03-26T09:19:24Z</time></trkpt><trkpt lat="43.52953337527484" lon="5.446234088298821"><ele>200.0</ele><time>2026-03-26T09:19:29Z</time></trkpt><trkpt lat="43.529534626481485" lon="5.446334029052055"><ele>200.00000000000003</ele><time>2026-03-26T09:19:31Z</time></trkpt><trkpt lat="43.52949505372306" lon="5.446414952096967"><ele>200.0</ele><time>2026-03-26T09:19:33Z</time></trkpt><trkpt lat="43.529456796206375" lon="5.446501935856459"><ele>201.0</ele><time>2026-03-26T09:19:37Z</time></trkpt><trkpt lat="43.5295263690851" lon="5.446568954351986"><ele>202.0</ele><time>2026-03-26T09:19:41Z</time></trkpt><trkpt lat="43.5296252557459" lon="5.446672636861835"><ele>203.0</ele><time>2026-03-26T09:19:46.001Z</time></trkpt><trkpt lat="43.52958668817329" lon="5.446765684335996"><ele>204.0</ele><time>2026-03-26T09:19:47.001Z</time></trkpt><trkpt lat="43.529597039004614" lon="5.446876541216655"><ele>205.0</ele><time>2026-03-26T09:19:50.001Z</time></trkpt><trkpt lat="43.52963454290833" lon="5.446981869413236"><ele>205.0</ele><time>2026-03-26T09:19:53.001Z</time></trkpt><trkpt lat="43.529584548912275" lon="5.447038795653722"><ele>205.0</ele><time>2026-03-26T09:20:01.001Z</time></trkpt><trkpt lat="43.529530965956795" lon="5.446930040900779"><ele>205.0</ele><time>2026-03-26T09:20:04.001Z</time></trkpt><trkpt lat="43.52943099348831" lon="5.4468885911767515"><ele>205.0</ele><time>2026-03-26T09:20:06.001Z</time></trkpt><trkpt lat="43.52932107236024" lon="5.446898523425388"><ele>205.0</ele><time>2026-03-26T09:20:07.001Z</time></trkpt><trkpt lat="43.529240279964064" lon="5.44693994275029"><ele>204.99999999999997</ele><time>2026-03-26T09:20:09.001Z</time></trkpt><trkpt lat="43.52916621257246" lon="5.446938454476481"><ele>205.0</ele><time>2026-03-26T09:20:12.001Z</time></trkpt><trkpt lat="43.52904292876768" lon="5.447000505539417"><ele>205.0</ele><time>2026-03-26T09:20:14.001Z</time></trkpt><trkpt lat="43.528969369711035" lon="5.447034207057966"><ele>205.0</ele><time>2026-03-26T09:20:15.001Z</time></trkpt><trkpt lat="43.52891032689791" lon="5.447069460371998"><ele>204.99999999999997</ele><time>2026-03-26T09:20:16.001Z</time></trkpt><trkpt lat="43.52882475838972" lon="5.447028977797019"><ele>205.0</ele><time>2026-03-26T09:20:18.001Z</time></trkpt><trkpt lat="43.52874781793953" lon="5.447167682363111"><ele>208.0</ele><time>2026-03-26T09:20:23.001Z</time></trkpt><trkpt lat="43.528670775613456" lon="5.447085916533164"><ele>202.0</ele><time>2026-03-26T09:20:25.001Z</time></trkpt><trkpt lat="43.528596972107714" lon="5.447121600342706"><ele>202.0</ele><time>2026-03-26T09:20:28.001Z</time></trkpt><trkpt lat="43.52853259595309" lon="5.447162890037273"><ele>205.0</ele><time>2026-03-26T09:20:33.001Z</time></trkpt></trkseg></trk></gpx>